sensor_id;sensor_type;location;lat;lon;timestamp;P1;durP1;ratioP1;P2;durP2;ratioP2
15673;SDS011;7937;48.090;16.212;2024-02-15T00:02:23;2.83;;;0.80;;
15673;SDS011;7937;48.090;16.212;2024-02-15T00:05:25;1.17;;;1.00;;
15673;SDS011;7937;48.090;16.212;2024-02-15T00:08:30;0.90;;;0.63;;
15673;SDS011;7937;48.090;16.212;2024-02-15T00:11:32;2.47;;;0.73;;
15673;SDS011;7937;48.090;16.212;2024-02-15T00:14:35;3.10;;;0.90;;
15673;SDS011;7937;48.090;16.212;2024-02-15T00:17:40;2.33;;;0.90;;
15673;SDS011;7937;48.090;16.212;2024-02-15T00:20:42;2.40;;;0.93;;
15673;SDS011;7937;48.090;16.212;2024-02-15T00:23:45;2.73;;;1.20;;
15673;SDS011;7937;48.090;16.212;2024-02-15T00:26:48;1.53;;;0.90;;
15673;SDS011;7937;48.090;16.212;2024-02-15T00:29:50;3.90;;;0.90;;
15673;SDS011;7937;48.090;16.212;2024-02-15T00:32:52;2.03;;;0.97;;
15673;SDS011;7937;48.090;16.212;2024-02-15T00:35:55;1.73;;;1.00;;
15673;SDS011;7937;48.090;16.212;2024-02-15T00:38:58;2.20;;;1.20;;
15673;SDS011;7937;48.090;16.212;2024-02-15T00:42:01;2.93;;;1.03;;
15673;SDS011;7937;48.090;16.212;2024-02-15T00:45:03;2.20;;;0.90;;
15673;SDS011;7937;48.090;16.212;2024-02-15T00:48:07;1.23;;;1.07;;
15673;SDS011;7937;48.090;16.212;2024-02-15T00:51:09;4.60;;;1.00;;
15673;SDS011;7937;48.090;16.212;2024-02-15T00:54:12;1.90;;;0.80;;
15673;SDS011;7937;48.090;16.212;2024-02-15T00:57:14;2.93;;;0.77;;
15673;SDS011;7937;48.090;16.212;2024-02-15T01:00:16;2.20;;;1.13;;
15673;SDS011;7937;48.090;16.212;2024-02-15T01:03:18;1.97;;;0.90;;
15673;SDS011;7937;48.090;16.212;2024-02-15T01:06:21;2.07;;;1.30;;
15673;SDS011;7937;48.090;16.212;2024-02-15T01:09:24;2.23;;;1.10;;
15673;SDS011;7937;48.090;16.212;2024-02-15T01:12:26;1.07;;;0.70;;
15673;SDS011;7937;48.090;16.212;2024-02-15T01:15:29;3.60;;;0.90;;
15673;SDS011;7937;48.090;16.212;2024-02-15T01:18:31;1.67;;;0.70;;
15673;SDS011;7937;48.090;16.212;2024-02-15T01:21:34;1.43;;;1.17;;
15673;SDS011;7937;48.090;16.212;2024-02-15T01:24:36;1.00;;;0.67;;
15673;SDS011;7937;48.090;16.212;2024-02-15T01:27:38;0.93;;;0.63;;
15673;SDS011;7937;48.090;16.212;2024-02-15T01:30:40;2.90;;;1.03;;
15673;SDS011;7937;48.090;16.212;2024-02-15T01:33:45;1.73;;;0.90;;
15673;SDS011;7937;48.090;16.212;2024-02-15T01:36:48;0.87;;;0.73;;
15673;SDS011;7937;48.090;16.212;2024-02-15T01:39:51;1.30;;;1.00;;
15673;SDS011;7937;48.090;16.212;2024-02-15T01:42:54;1.20;;;0.80;;
15673;SDS011;7937;48.090;16.212;2024-02-15T01:45:57;2.57;;;0.77;;
15673;SDS011;7937;48.090;16.212;2024-02-15T01:49:01;1.20;;;0.83;;
15673;SDS011;7937;48.090;16.212;2024-02-15T01:52:04;1.37;;;0.70;;
15673;SDS011;7937;48.090;16.212;2024-02-15T01:55:10;2.10;;;0.90;;
15673;SDS011;7937;48.090;16.212;2024-02-15T01:58:12;1.13;;;0.70;;
15673;SDS011;7937;48.090;16.212;2024-02-15T02:01:16;1.27;;;0.80;;
15673;SDS011;7937;48.090;16.212;2024-02-15T02:04:18;2.20;;;0.90;;
15673;SDS011;7937;48.090;16.212;2024-02-15T02:07:21;1.03;;;0.60;;
15673;SDS011;7937;48.090;16.212;2024-02-15T02:10:23;1.67;;;0.87;;
15673;SDS011;7937;48.090;16.212;2024-02-15T02:13:25;1.73;;;0.87;;
15673;SDS011;7937;48.090;16.212;2024-02-15T02:16:30;0.70;;;0.60;;
15673;SDS011;7937;48.090;16.212;2024-02-15T02:19:33;1.90;;;0.80;;
15673;SDS011;7937;48.090;16.212;2024-02-15T02:22:40;0.73;;;0.60;;
15673;SDS011;7937;48.090;16.212;2024-02-15T02:25:43;2.97;;;0.90;;
15673;SDS011;7937;48.090;16.212;2024-02-15T02:28:48;2.40;;;1.00;;
15673;SDS011;7937;48.090;16.212;2024-02-15T02:31:50;1.43;;;1.00;;
15673;SDS011;7937;48.090;16.212;2024-02-15T02:34:52;2.07;;;1.07;;
15673;SDS011;7937;48.090;16.212;2024-02-15T02:37:59;0.97;;;0.80;;
15673;SDS011;7937;48.090;16.212;2024-02-15T02:41:01;3.37;;;0.87;;
15673;SDS011;7937;48.090;16.212;2024-02-15T02:44:04;3.07;;;0.60;;
15673;SDS011;7937;48.090;16.212;2024-02-15T02:47:06;2.30;;;1.00;;
15673;SDS011;7937;48.090;16.212;2024-02-15T02:50:08;1.60;;;0.83;;
15673;SDS011;7937;48.090;16.212;2024-02-15T02:53:11;2.00;;;1.03;;
15673;SDS011;7937;48.090;16.212;2024-02-15T02:56:15;0.83;;;0.70;;
15673;SDS011;7937;48.090;16.212;2024-02-15T02:59:17;2.10;;;0.90;;
15673;SDS011;7937;48.090;16.212;2024-02-15T03:02:19;1.57;;;1.00;;
15673;SDS011;7937;48.090;16.212;2024-02-15T03:05:24;1.10;;;0.80;;
15673;SDS011;7937;48.090;16.212;2024-02-15T03:08:26;0.80;;;0.80;;
15673;SDS011;7937;48.090;16.212;2024-02-15T03:11:28;2.50;;;0.70;;
15673;SDS011;7937;48.090;16.212;2024-02-15T03:14:30;1.00;;;0.77;;
15673;SDS011;7937;48.090;16.212;2024-02-15T03:17:37;1.13;;;0.70;;
15673;SDS011;7937;48.090;16.212;2024-02-15T03:20:43;1.43;;;0.93;;
15673;SDS011;7937;48.090;16.212;2024-02-15T03:23:46;1.17;;;0.70;;
15673;SDS011;7937;48.090;16.212;2024-02-15T03:26:48;1.20;;;0.70;;
15673;SDS011;7937;48.090;16.212;2024-02-15T03:29:50;1.60;;;0.90;;
15673;SDS011;7937;48.090;16.212;2024-02-15T03:32:54;2.70;;;0.90;;
15673;SDS011;7937;48.090;16.212;2024-02-15T03:35:57;1.13;;;0.70;;
15673;SDS011;7937;48.090;16.212;2024-02-15T03:39:01;1.70;;;0.70;;
15673;SDS011;7937;48.090;16.212;2024-02-15T03:42:03;5.57;;;0.90;;
15673;SDS011;7937;48.090;16.212;2024-02-15T03:45:06;1.67;;;0.53;;
15673;SDS011;7937;48.090;16.212;2024-02-15T03:48:08;1.43;;;0.60;;
15673;SDS011;7937;48.090;16.212;2024-02-15T03:51:15;2.53;;;0.90;;
15673;SDS011;7937;48.090;16.212;2024-02-15T03:54:19;0.73;;;0.70;;
15673;SDS011;7937;48.090;16.212;2024-02-15T03:57:21;1.30;;;0.70;;
15673;SDS011;7937;48.090;16.212;2024-02-15T04:00:23;2.83;;;0.77;;
15673;SDS011;7937;48.090;16.212;2024-02-15T04:03:27;1.00;;;0.90;;
15673;SDS011;7937;48.090;16.212;2024-02-15T04:06:29;2.17;;;0.53;;
15673;SDS011;7937;48.090;16.212;2024-02-15T04:09:35;0.80;;;0.80;;
15673;SDS011;7937;48.090;16.212;2024-02-15T04:12:37;2.53;;;0.83;;
15673;SDS011;7937;48.090;16.212;2024-02-15T04:15:39;0.80;;;0.70;;
15673;SDS011;7937;48.090;16.212;2024-02-15T04:18:43;2.23;;;0.70;;
15673;SDS011;7937;48.090;16.212;2024-02-15T04:21:47;3.73;;;1.00;;
15673;SDS011;7937;48.090;16.212;2024-02-15T04:24:49;1.50;;;1.00;;
15673;SDS011;7937;48.090;16.212;2024-02-15T04:27:51;1.70;;;0.90;;
15673;SDS011;7937;48.090;16.212;2024-02-15T04:30:53;2.17;;;1.30;;
15673;SDS011;7937;48.090;16.212;2024-02-15T04:33:57;1.60;;;1.27;;
15673;SDS011;7937;48.090;16.212;2024-02-15T04:37:01;3.10;;;1.37;;
15673;SDS011;7937;48.090;16.212;2024-02-15T04:40:08;1.20;;;1.10;;
15673;SDS011;7937;48.090;16.212;2024-02-15T04:43:13;2.27;;;1.00;;
15673;SDS011;7937;48.090;16.212;2024-02-15T04:46:18;2.83;;;1.20;;
15673;SDS011;7937;48.090;16.212;2024-02-15T04:49:23;5.43;;;1.27;;
15673;SDS011;7937;48.090;16.212;2024-02-15T04:52:25;1.83;;;1.23;;
15673;SDS011;7937;48.090;16.212;2024-02-15T04:55:27;1.67;;;0.80;;
15673;SDS011;7937;48.090;16.212;2024-02-15T04:58:33;0.90;;;0.83;;
15673;SDS011;7937;48.090;16.212;2024-02-15T05:01:38;1.40;;;0.73;;
15673;SDS011;7937;48.090;16.212;2024-02-15T05:04:41;1.90;;;1.10;;
15673;SDS011;7937;48.090;16.212;2024-02-15T05:07:44;1.33;;;0.80;;
15673;SDS011;7937;48.090;16.212;2024-02-15T05:10:46;1.80;;;1.03;;
15673;SDS011;7937;48.090;16.212;2024-02-15T05:13:48;1.73;;;0.93;;
15673;SDS011;7937;48.090;16.212;2024-02-15T05:16:52;1.10;;;1.00;;
15673;SDS011;7937;48.090;16.212;2024-02-15T05:19:54;2.17;;;1.10;;
15673;SDS011;7937;48.090;16.212;2024-02-15T05:23:01;1.50;;;1.00;;
15673;SDS011;7937;48.090;16.212;2024-02-15T05:26:03;3.67;;;1.00;;
15673;SDS011;7937;48.090;16.212;2024-02-15T05:29:05;2.70;;;1.10;;
15673;SDS011;7937;48.090;16.212;2024-02-15T05:32:07;0.83;;;0.77;;
15673;SDS011;7937;48.090;16.212;2024-02-15T05:35:11;1.97;;;0.73;;
15673;SDS011;7937;48.090;16.212;2024-02-15T05:38:13;1.33;;;0.80;;
15673;SDS011;7937;48.090;16.212;2024-02-15T05:41:17;0.80;;;0.70;;
15673;SDS011;7937;48.090;16.212;2024-02-15T05:44:19;1.33;;;0.80;;
15673;SDS011;7937;48.090;16.212;2024-02-15T05:47:22;1.67;;;1.07;;
15673;SDS011;7937;48.090;16.212;2024-02-15T05:50:24;1.80;;;0.70;;
15673;SDS011;7937;48.090;16.212;2024-02-15T05:53:29;1.20;;;0.83;;
15673;SDS011;7937;48.090;16.212;2024-02-15T05:56:32;1.30;;;0.90;;
15673;SDS011;7937;48.090;16.212;2024-02-15T05:59:34;0.77;;;0.53;;
15673;SDS011;7937;48.090;16.212;2024-02-15T06:02:37;2.10;;;1.00;;
15673;SDS011;7937;48.090;16.212;2024-02-15T06:05:39;0.63;;;0.63;;
15673;SDS011;7937;48.090;16.212;2024-02-15T06:08:45;2.07;;;0.87;;
15673;SDS011;7937;48.090;16.212;2024-02-15T06:11:49;2.10;;;0.83;;
15673;SDS011;7937;48.090;16.212;2024-02-15T06:14:53;4.60;;;0.80;;
15673;SDS011;7937;48.090;16.212;2024-02-15T06:17:55;1.17;;;0.70;;
15673;SDS011;7937;48.090;16.212;2024-02-15T06:20:59;1.00;;;0.57;;
15673;SDS011;7937;48.090;16.212;2024-02-15T06:24:02;1.70;;;0.80;;
15673;SDS011;7937;48.090;16.212;2024-02-15T06:27:04;0.83;;;0.70;;
15673;SDS011;7937;48.090;16.212;2024-02-15T06:30:11;1.60;;;0.60;;
15673;SDS011;7937;48.090;16.212;2024-02-15T06:33:32;0.90;;;0.83;;
15673;SDS011;7937;48.090;16.212;2024-02-15T06:36:55;1.00;;;0.90;;
15673;SDS011;7937;48.090;16.212;2024-02-15T06:40:16;2.07;;;0.80;;
15673;SDS011;7937;48.090;16.212;2024-02-15T06:43:19;0.67;;;0.67;;
15673;SDS011;7937;48.090;16.212;2024-02-15T06:46:21;2.20;;;0.53;;
15673;SDS011;7937;48.090;16.212;2024-02-15T06:49:23;2.80;;;0.80;;
15673;SDS011;7937;48.090;16.212;2024-02-15T06:52:29;0.50;;;0.40;;
15673;SDS011;7937;48.090;16.212;2024-02-15T06:55:31;0.70;;;0.60;;
15673;SDS011;7937;48.090;16.212;2024-02-15T06:58:33;1.80;;;0.70;;
15673;SDS011;7937;48.090;16.212;2024-02-15T07:01:35;2.67;;;0.60;;
15673;SDS011;7937;48.090;16.212;2024-02-15T07:04:39;1.13;;;0.90;;
15673;SDS011;7937;48.090;16.212;2024-02-15T07:07:41;1.87;;;0.67;;
15673;SDS011;7937;48.090;16.212;2024-02-15T07:10:44;1.07;;;0.47;;
15673;SDS011;7937;48.090;16.212;2024-02-15T07:13:46;2.33;;;0.70;;
15673;SDS011;7937;48.090;16.212;2024-02-15T07:16:49;1.17;;;0.60;;
15673;SDS011;7937;48.090;16.212;2024-02-15T07:19:52;0.73;;;0.60;;
15673;SDS011;7937;48.090;16.212;2024-02-15T07:22:54;1.40;;;0.73;;
15673;SDS011;7937;48.090;16.212;2024-02-15T07:25:57;0.80;;;0.50;;
15673;SDS011;7937;48.090;16.212;2024-02-15T07:28:59;0.93;;;0.63;;
15673;SDS011;7937;48.090;16.212;2024-02-15T07:32:02;2.67;;;1.20;;
15673;SDS011;7937;48.090;16.212;2024-02-15T07:35:08;0.50;;;0.50;;
15673;SDS011;7937;48.090;16.212;2024-02-15T07:38:10;0.90;;;0.50;;
15673;SDS011;7937;48.090;16.212;2024-02-15T07:41:13;1.17;;;0.60;;
15673;SDS011;7937;48.090;16.212;2024-02-15T07:44:15;1.37;;;0.40;;
15673;SDS011;7937;48.090;16.212;2024-02-15T07:47:19;0.70;;;0.60;;
15673;SDS011;7937;48.090;16.212;2024-02-15T07:50:25;0.40;;;0.40;;
15673;SDS011;7937;48.090;16.212;2024-02-15T07:53:27;1.73;;;0.57;;
15673;SDS011;7937;48.090;16.212;2024-02-15T07:56:29;3.23;;;0.70;;
15673;SDS011;7937;48.090;16.212;2024-02-15T07:59:31;0.80;;;0.50;;
15673;SDS011;7937;48.090;16.212;2024-02-15T08:02:33;1.80;;;0.50;;
15673;SDS011;7937;48.090;16.212;2024-02-15T08:05:36;0.83;;;0.50;;
15673;SDS011;7937;48.090;16.212;2024-02-15T08:08:42;2.50;;;0.70;;
15673;SDS011;7937;48.090;16.212;2024-02-15T08:11:48;0.57;;;0.57;;
15673;SDS011;7937;48.090;16.212;2024-02-15T08:14:51;0.53;;;0.53;;
15673;SDS011;7937;48.090;16.212;2024-02-15T08:17:53;1.70;;;0.50;;
15673;SDS011;7937;48.090;16.212;2024-02-15T08:21:00;0.70;;;0.70;;
15673;SDS011;7937;48.090;16.212;2024-02-15T08:24:03;0.83;;;0.50;;
15673;SDS011;7937;48.090;16.212;2024-02-15T08:27:08;0.50;;;0.50;;
15673;SDS011;7937;48.090;16.212;2024-02-15T08:30:13;2.20;;;0.83;;
15673;SDS011;7937;48.090;16.212;2024-02-15T08:33:15;0.50;;;0.50;;
15673;SDS011;7937;48.090;16.212;2024-02-15T08:36:18;1.97;;;0.67;;
15673;SDS011;7937;48.090;16.212;2024-02-15T08:39:20;1.50;;;0.63;;
15673;SDS011;7937;48.090;16.212;2024-02-15T08:42:23;1.37;;;0.67;;
15673;SDS011;7937;48.090;16.212;2024-02-15T08:45:26;0.80;;;0.67;;
15673;SDS011;7937;48.090;16.212;2024-02-15T08:48:28;0.97;;;0.83;;
15673;SDS011;7937;48.090;16.212;2024-02-15T08:51:32;0.73;;;0.63;;
15673;SDS011;7937;48.090;16.212;2024-02-15T08:54:35;1.57;;;0.70;;
15673;SDS011;7937;48.090;16.212;2024-02-15T08:57:43;0.90;;;0.50;;
15673;SDS011;7937;48.090;16.212;2024-02-15T09:00:48;0.83;;;0.60;;
15673;SDS011;7937;48.090;16.212;2024-02-15T09:03:50;1.10;;;0.70;;
15673;SDS011;7937;48.090;16.212;2024-02-15T09:06:52;0.60;;;0.53;;
15673;SDS011;7937;48.090;16.212;2024-02-15T09:09:54;0.60;;;0.60;;
15673;SDS011;7937;48.090;16.212;2024-02-15T09:12:56;1.00;;;0.67;;
15673;SDS011;7937;48.090;16.212;2024-02-15T09:15:59;1.70;;;0.57;;
15673;SDS011;7937;48.090;16.212;2024-02-15T09:19:01;1.60;;;0.60;;
15673;SDS011;7937;48.090;16.212;2024-02-15T09:22:04;0.40;;;0.30;;
15673;SDS011;7937;48.090;16.212;2024-02-15T09:25:06;0.60;;;0.60;;
15673;SDS011;7937;48.090;16.212;2024-02-15T09:28:09;0.70;;;0.43;;
15673;SDS011;7937;48.090;16.212;2024-02-15T09:31:12;0.80;;;0.50;;
15673;SDS011;7937;48.090;16.212;2024-02-15T09:34:15;0.40;;;0.40;;
15673;SDS011;7937;48.090;16.212;2024-02-15T09:37:18;0.40;;;0.40;;
15673;SDS011;7937;48.090;16.212;2024-02-15T09:40:20;0.50;;;0.50;;
15673;SDS011;7937;48.090;16.212;2024-02-15T09:43:23;0.50;;;0.43;;
15673;SDS011;7937;48.090;16.212;2024-02-15T09:46:28;0.47;;;0.47;;
15673;SDS011;7937;48.090;16.212;2024-02-15T09:49:35;0.40;;;0.40;;
15673;SDS011;7937;48.090;16.212;2024-02-15T09:52:44;1.57;;;0.73;;
15673;SDS011;7937;48.090;16.212;2024-02-15T09:55:47;0.97;;;0.57;;
15673;SDS011;7937;48.090;16.212;2024-02-15T09:58:50;0.83;;;0.70;;
15673;SDS011;7937;48.090;16.212;2024-02-15T10:01:53;0.87;;;0.50;;
15673;SDS011;7937;48.090;16.212;2024-02-15T10:05:00;0.90;;;0.77;;
15673;SDS011;7937;48.090;16.212;2024-02-15T10:08:02;0.90;;;0.60;;
15673;SDS011;7937;48.090;16.212;2024-02-15T10:11:07;0.70;;;0.57;;
15673;SDS011;7937;48.090;16.212;2024-02-15T10:14:11;0.40;;;0.40;;
15673;SDS011;7937;48.090;16.212;2024-02-15T10:17:13;0.53;;;0.47;;
15673;SDS011;7937;48.090;16.212;2024-02-15T10:20:18;0.73;;;0.47;;
15673;SDS011;7937;48.090;16.212;2024-02-15T10:23:20;0.77;;;0.50;;
15673;SDS011;7937;48.090;16.212;2024-02-15T10:26:22;0.40;;;0.40;;
15673;SDS011;7937;48.090;16.212;2024-02-15T10:29:26;0.67;;;0.57;;
15673;SDS011;7937;48.090;16.212;2024-02-15T10:32:34;0.77;;;0.40;;
15673;SDS011;7937;48.090;16.212;2024-02-15T10:35:37;0.90;;;0.50;;
15673;SDS011;7937;48.090;16.212;2024-02-15T10:38:39;0.60;;;0.50;;
15673;SDS011;7937;48.090;16.212;2024-02-15T10:41:46;2.30;;;0.40;;
15673;SDS011;7937;48.090;16.212;2024-02-15T10:44:49;0.40;;;0.37;;
15673;SDS011;7937;48.090;16.212;2024-02-15T10:47:54;0.70;;;0.50;;
15673;SDS011;7937;48.090;16.212;2024-02-15T10:50:58;0.60;;;0.43;;
15673;SDS011;7937;48.090;16.212;2024-02-15T10:54:02;0.93;;;0.40;;
15673;SDS011;7937;48.090;16.212;2024-02-15T10:57:05;0.80;;;0.60;;
15673;SDS011;7937;48.090;16.212;2024-02-15T11:00:08;0.37;;;0.33;;
15673;SDS011;7937;48.090;16.212;2024-02-15T11:03:29;1.50;;;0.60;;
15673;SDS011;7937;48.090;16.212;2024-02-15T11:06:38;1.13;;;0.80;;
15673;SDS011;7937;48.090;16.212;2024-02-15T11:09:44;0.40;;;0.40;;
15673;SDS011;7937;48.090;16.212;2024-02-15T11:12:46;1.53;;;0.73;;
15673;SDS011;7937;48.090;16.212;2024-02-15T11:15:52;0.70;;;0.53;;
15673;SDS011;7937;48.090;16.212;2024-02-15T11:18:55;0.80;;;0.50;;
15673;SDS011;7937;48.090;16.212;2024-02-15T11:21:57;0.87;;;0.70;;
15673;SDS011;7937;48.090;16.212;2024-02-15T11:25:00;0.60;;;0.60;;
15673;SDS011;7937;48.090;16.212;2024-02-15T11:35:06;1.10;;;1.00;;
15673;SDS011;7937;48.090;16.212;2024-02-15T11:38:26;1.40;;;0.90;;
15673;SDS011;7937;48.090;16.212;2024-02-15T11:41:29;0.87;;;0.60;;
15673;SDS011;7937;48.090;16.212;2024-02-15T11:44:32;1.67;;;0.77;;
15673;SDS011;7937;48.090;16.212;2024-02-15T11:47:37;1.23;;;0.80;;
15673;SDS011;7937;48.090;16.212;2024-02-15T11:50:41;2.33;;;1.40;;
15673;SDS011;7937;48.090;16.212;2024-02-15T11:53:44;2.73;;;1.30;;
15673;SDS011;7937;48.090;16.212;2024-02-15T11:56:50;1.33;;;0.93;;
15673;SDS011;7937;48.090;16.212;2024-02-15T11:59:56;1.47;;;1.13;;
15673;SDS011;7937;48.090;16.212;2024-02-15T12:03:19;3.73;;;1.07;;
15673;SDS011;7937;48.090;16.212;2024-02-15T12:06:46;3.20;;;1.10;;
15673;SDS011;7937;48.090;16.212;2024-02-15T12:10:08;1.90;;;0.87;;
15673;SDS011;7937;48.090;16.212;2024-02-15T12:13:35;2.30;;;1.10;;
15673;SDS011;7937;48.090;16.212;2024-02-15T12:17:02;1.73;;;1.10;;
15673;SDS011;7937;48.090;16.212;2024-02-15T12:20:25;1.67;;;0.90;;
15673;SDS011;7937;48.090;16.212;2024-02-15T12:23:27;2.47;;;0.97;;
15673;SDS011;7937;48.090;16.212;2024-02-15T12:26:32;2.67;;;1.13;;
15673;SDS011;7937;48.090;16.212;2024-02-15T12:29:36;1.07;;;0.90;;
15673;SDS011;7937;48.090;16.212;2024-02-15T12:32:38;1.50;;;1.03;;
15673;SDS011;7937;48.090;16.212;2024-02-15T12:35:41;1.30;;;0.90;;
15673;SDS011;7937;48.090;16.212;2024-02-15T12:38:44;2.53;;;0.80;;
15673;SDS011;7937;48.090;16.212;2024-02-15T12:41:47;2.47;;;1.10;;
15673;SDS011;7937;48.090;16.212;2024-02-15T12:44:54;1.73;;;1.10;;
15673;SDS011;7937;48.090;16.212;2024-02-15T12:47:56;1.77;;;1.30;;
15673;SDS011;7937;48.090;16.212;2024-02-15T12:50:59;2.60;;;1.27;;
15673;SDS011;7937;48.090;16.212;2024-02-15T12:54:14;2.00;;;1.47;;
15673;SDS011;7937;48.090;16.212;2024-02-15T12:57:19;2.43;;;1.63;;
15673;SDS011;7937;48.090;16.212;2024-02-15T13:00:22;2.60;;;1.90;;
15673;SDS011;7937;48.090;16.212;2024-02-15T13:03:37;3.53;;;2.90;;
15673;SDS011;7937;48.090;16.212;2024-02-15T13:06:39;4.00;;;2.97;;
15673;SDS011;7937;48.090;16.212;2024-02-15T13:09:42;5.97;;;2.60;;
15673;SDS011;7937;48.090;16.212;2024-02-15T13:12:45;4.23;;;2.93;;
15673;SDS011;7937;48.090;16.212;2024-02-15T13:15:48;4.57;;;2.70;;
15673;SDS011;7937;48.090;16.212;2024-02-15T13:18:53;3.03;;;2.73;;
15673;SDS011;7937;48.090;16.212;2024-02-15T13:21:56;5.87;;;3.03;;
15673;SDS011;7937;48.090;16.212;2024-02-15T13:24:59;3.23;;;2.37;;
15673;SDS011;7937;48.090;16.212;2024-02-15T13:28:02;4.03;;;2.10;;
15673;SDS011;7937;48.090;16.212;2024-02-15T13:31:06;2.50;;;2.30;;
15673;SDS011;7937;48.090;16.212;2024-02-15T13:34:09;4.57;;;2.33;;
15673;SDS011;7937;48.090;16.212;2024-02-15T13:37:13;4.90;;;2.50;;
15673;SDS011;7937;48.090;16.212;2024-02-15T13:40:16;3.20;;;2.30;;
15673;SDS011;7937;48.090;16.212;2024-02-15T13:43:18;2.77;;;2.27;;
15673;SDS011;7937;48.090;16.212;2024-02-15T13:46:20;4.30;;;2.13;;
15673;SDS011;7937;48.090;16.212;2024-02-15T13:49:22;4.83;;;2.27;;
15673;SDS011;7937;48.090;16.212;2024-02-15T13:52:33;3.77;;;2.27;;
15673;SDS011;7937;48.090;16.212;2024-02-15T13:55:36;3.83;;;1.93;;
15673;SDS011;7937;48.090;16.212;2024-02-15T14:03:26;2.57;;;1.80;;
15673;SDS011;7937;48.090;16.212;2024-02-15T14:06:28;1.83;;;1.67;;
15673;SDS011;7937;48.090;16.212;2024-02-15T14:09:31;3.80;;;1.90;;
15673;SDS011;7937;48.090;16.212;2024-02-15T14:12:33;3.43;;;1.70;;
15673;SDS011;7937;48.090;16.212;2024-02-15T14:15:36;2.97;;;2.00;;
15673;SDS011;7937;48.090;16.212;2024-02-15T14:18:41;2.13;;;1.60;;
15673;SDS011;7937;48.090;16.212;2024-02-15T14:21:46;1.40;;;1.30;;
15673;SDS011;7937;48.090;16.212;2024-02-15T14:24:49;2.37;;;1.70;;
15673;SDS011;7937;48.090;16.212;2024-02-15T14:27:53;2.97;;;1.60;;
15673;SDS011;7937;48.090;16.212;2024-02-15T14:30:56;7.03;;;2.07;;
15673;SDS011;7937;48.090;16.212;2024-02-15T14:34:17;3.10;;;1.83;;
15673;SDS011;7937;48.090;16.212;2024-02-15T14:37:19;3.57;;;2.03;;
15673;SDS011;7937;48.090;16.212;2024-02-15T14:40:24;2.77;;;2.10;;
15673;SDS011;7937;48.090;16.212;2024-02-15T14:43:28;3.77;;;2.00;;
15673;SDS011;7937;48.090;16.212;2024-02-15T14:46:31;2.37;;;1.87;;
15673;SDS011;7937;48.090;16.212;2024-02-15T14:49:36;2.53;;;2.20;;
15673;SDS011;7937;48.090;16.212;2024-02-15T14:52:38;2.30;;;2.10;;
15673;SDS011;7937;48.090;16.212;2024-02-15T14:55:41;2.03;;;1.73;;
15673;SDS011;7937;48.090;16.212;2024-02-15T14:58:48;2.27;;;1.77;;
15673;SDS011;7937;48.090;16.212;2024-02-15T15:01:50;5.93;;;2.83;;
15673;SDS011;7937;48.090;16.212;2024-02-15T15:04:53;3.03;;;2.00;;
15673;SDS011;7937;48.090;16.212;2024-02-15T15:08:14;4.90;;;2.60;;
15673;SDS011;7937;48.090;16.212;2024-02-15T15:11:34;3.80;;;2.57;;
15673;SDS011;7937;48.090;16.212;2024-02-15T15:14:55;4.83;;;2.60;;
15673;SDS011;7937;48.090;16.212;2024-02-15T15:17:58;3.57;;;2.67;;
15673;SDS011;7937;48.090;16.212;2024-02-15T15:21:00;2.87;;;2.17;;
15673;SDS011;7937;48.090;16.212;2024-02-15T15:24:03;5.03;;;2.60;;
15673;SDS011;7937;48.090;16.212;2024-02-15T15:27:05;4.60;;;2.30;;
15673;SDS011;7937;48.090;16.212;2024-02-15T15:30:08;2.93;;;2.40;;
15673;SDS011;7937;48.090;16.212;2024-02-15T15:33:12;2.80;;;2.50;;
15673;SDS011;7937;48.090;16.212;2024-02-15T15:36:15;3.50;;;2.73;;
15673;SDS011;7937;48.090;16.212;2024-02-15T15:39:19;3.83;;;2.27;;
15673;SDS011;7937;48.090;16.212;2024-02-15T15:42:21;4.73;;;2.97;;
15673;SDS011;7937;48.090;16.212;2024-02-15T15:45:24;4.37;;;3.00;;
15673;SDS011;7937;48.090;16.212;2024-02-15T15:48:27;5.23;;;2.87;;
15673;SDS011;7937;48.090;16.212;2024-02-15T15:51:29;3.87;;;2.93;;
15673;SDS011;7937;48.090;16.212;2024-02-15T15:54:31;4.60;;;2.87;;
15673;SDS011;7937;48.090;16.212;2024-02-15T15:57:35;3.83;;;2.87;;
15673;SDS011;7937;48.090;16.212;2024-02-15T16:00:37;4.50;;;2.63;;
15673;SDS011;7937;48.090;16.212;2024-02-15T16:03:39;3.33;;;2.70;;
15673;SDS011;7937;48.090;16.212;2024-02-15T16:06:42;3.40;;;2.30;;
15673;SDS011;7937;48.090;16.212;2024-02-15T16:09:45;4.43;;;2.87;;
15673;SDS011;7937;48.090;16.212;2024-02-15T16:12:48;4.83;;;2.60;;
15673;SDS011;7937;48.090;16.212;2024-02-15T16:15:53;5.43;;;2.60;;
15673;SDS011;7937;48.090;16.212;2024-02-15T16:18:56;4.13;;;2.47;;
15673;SDS011;7937;48.090;16.212;2024-02-15T16:22:00;6.23;;;2.77;;
15673;SDS011;7937;48.090;16.212;2024-02-15T16:25:02;3.70;;;2.57;;
15673;SDS011;7937;48.090;16.212;2024-02-15T16:28:07;5.40;;;2.77;;
15673;SDS011;7937;48.090;16.212;2024-02-15T16:31:10;15.03;;;2.83;;
15673;SDS011;7937;48.090;16.212;2024-02-15T16:34:12;7.87;;;2.50;;
15673;SDS011;7937;48.090;16.212;2024-02-15T16:37:15;4.67;;;2.90;;
15673;SDS011;7937;48.090;16.212;2024-02-15T16:40:17;7.40;;;2.90;;
15673;SDS011;7937;48.090;16.212;2024-02-15T16:43:19;4.43;;;2.60;;
15673;SDS011;7937;48.090;16.212;2024-02-15T16:46:22;4.27;;;2.43;;
15673;SDS011;7937;48.090;16.212;2024-02-15T16:49:25;5.77;;;3.20;;
15673;SDS011;7937;48.090;16.212;2024-02-15T16:52:28;4.57;;;3.23;;
15673;SDS011;7937;48.090;16.212;2024-02-15T16:55:30;6.03;;;3.20;;
15673;SDS011;7937;48.090;16.212;2024-02-15T16:58:34;7.20;;;3.93;;
15673;SDS011;7937;48.090;16.212;2024-02-15T17:01:38;5.03;;;3.37;;
15673;SDS011;7937;48.090;16.212;2024-02-15T17:04:41;6.23;;;3.67;;
15673;SDS011;7937;48.090;16.212;2024-02-15T17:07:43;5.70;;;4.00;;
15673;SDS011;7937;48.090;16.212;2024-02-15T17:10:45;8.33;;;4.53;;
15673;SDS011;7937;48.090;16.212;2024-02-15T17:13:47;6.67;;;4.40;;
15673;SDS011;7937;48.090;16.212;2024-02-15T17:16:50;10.60;;;4.30;;
15673;SDS011;7937;48.090;16.212;2024-02-15T17:19:53;8.53;;;5.60;;
15673;SDS011;7937;48.090;16.212;2024-02-15T17:22:56;9.00;;;5.40;;
15673;SDS011;7937;48.090;16.212;2024-02-15T17:25:59;7.63;;;5.57;;
15673;SDS011;7937;48.090;16.212;2024-02-15T17:29:01;7.10;;;5.40;;
15673;SDS011;7937;48.090;16.212;2024-02-15T17:32:09;12.17;;;6.00;;
15673;SDS011;7937;48.090;16.212;2024-02-15T17:35:11;10.13;;;5.60;;
15673;SDS011;7937;48.090;16.212;2024-02-15T17:38:15;10.33;;;5.90;;
15673;SDS011;7937;48.090;16.212;2024-02-15T17:41:17;10.80;;;6.43;;
15673;SDS011;7937;48.090;16.212;2024-02-15T17:44:20;10.53;;;6.90;;
15673;SDS011;7937;48.090;16.212;2024-02-15T17:47:22;9.83;;;7.37;;
15673;SDS011;7937;48.090;16.212;2024-02-15T17:50:25;10.17;;;6.60;;
15673;SDS011;7937;48.090;16.212;2024-02-15T17:53:29;14.10;;;7.37;;
15673;SDS011;7937;48.090;16.212;2024-02-15T17:56:31;11.23;;;8.10;;
15673;SDS011;7937;48.090;16.212;2024-02-15T17:59:33;12.00;;;7.23;;
15673;SDS011;7937;48.090;16.212;2024-02-15T18:02:35;13.53;;;8.27;;
15673;SDS011;7937;48.090;16.212;2024-02-15T18:05:38;14.50;;;9.03;;
15673;SDS011;7937;48.090;16.212;2024-02-15T18:08:48;11.30;;;8.37;;
15673;SDS011;7937;48.090;16.212;2024-02-15T18:11:50;12.10;;;9.47;;
15673;SDS011;7937;48.090;16.212;2024-02-15T18:14:52;10.80;;;9.53;;
15673;SDS011;7937;48.090;16.212;2024-02-15T18:17:54;11.83;;;8.90;;
15673;SDS011;7937;48.090;16.212;2024-02-15T18:20:59;11.90;;;8.43;;
15673;SDS011;7937;48.090;16.212;2024-02-15T18:24:01;13.10;;;9.40;;
15673;SDS011;7937;48.090;16.212;2024-02-15T18:27:03;15.13;;;10.27;;
15673;SDS011;7937;48.090;16.212;2024-02-15T18:30:07;13.03;;;10.40;;
15673;SDS011;7937;48.090;16.212;2024-02-15T18:33:11;12.83;;;10.53;;
15673;SDS011;7937;48.090;16.212;2024-02-15T18:36:16;16.13;;;11.23;;
15673;SDS011;7937;48.090;16.212;2024-02-15T18:39:20;24.57;;;14.67;;